createdAt,value
2023-03-30T00:02:07.826Z,100.00
2023-03-30T00:04:37.545Z,100.00
2023-03-30T00:07:05.579Z,100.00
2023-03-30T00:09:33.220Z,100.00
2023-03-30T00:12:03.819Z,100.00
2023-03-30T00:14:31.429Z,100.00
2023-03-30T00:17:07.259Z,100.00
2023-03-30T00:19:37.675Z,100.00
2023-03-30T00:22:05.993Z,100.00
2023-03-30T00:24:34.007Z,100.00
2023-03-30T00:27:01.677Z,100.00
2023-03-30T00:29:29.748Z,100.00
2023-03-30T00:31:57.472Z,100.00
2023-03-30T00:34:24.969Z,100.00
2023-03-30T00:36:57.607Z,100.00
2023-03-30T00:39:26.678Z,100.00
2023-03-30T00:41:54.269Z,100.00
2023-03-30T00:44:59.141Z,100.00
2023-03-30T00:47:26.515Z,100.00
2023-03-30T00:49:53.735Z,100.00
2023-03-30T00:52:24.997Z,100.00
2023-03-30T00:54:52.642Z,100.00
2023-03-30T00:57:21.959Z,100.00
2023-03-30T00:59:52.215Z,100.00
2023-03-30T01:02:21.681Z,100.00
2023-03-30T01:04:53.162Z,100.00
2023-03-30T01:07:24.322Z,100.00
2023-03-30T01:09:52.904Z,100.00
2023-03-30T01:12:20.639Z,100.00
2023-03-30T01:14:48.299Z,100.00
2023-03-30T01:17:31.168Z,100.00
2023-03-30T01:20:14.884Z,100.00
2023-03-30T01:22:54.336Z,100.00
2023-03-30T01:25:24.772Z,100.00
2023-03-30T01:28:04.523Z,100.00
2023-03-30T01:31:10.085Z,100.00
2023-03-30T01:33:49.265Z,100.00
2023-03-30T01:36:35.115Z,100.00
2023-03-30T01:39:20.325Z,100.00
2023-03-30T01:42:19.572Z,100.00
2023-03-30T01:45:07.105Z,100.00
2023-03-30T01:48:11.911Z,100.00
2023-03-30T01:50:48.372Z,100.00
2023-03-30T01:53:18.891Z,100.00
2023-03-30T01:56:04.102Z,100.00
2023-03-30T01:58:54.264Z,100.00
2023-03-30T02:01:21.689Z,100.00
2023-03-30T02:03:53.564Z,100.00
2023-03-30T02:06:38.856Z,100.00
2023-03-30T02:09:10.439Z,100.00
2023-03-30T02:11:38.156Z,100.00
2023-03-30T02:14:05.541Z,100.00
2023-03-30T02:16:45.924Z,100.00
2023-03-30T02:19:13.859Z,100.00
2023-03-30T02:21:42.251Z,100.00
2023-03-30T02:24:19.346Z,100.00
2023-03-30T02:26:47.595Z,100.00
2023-03-30T02:29:15.350Z,100.00
2023-03-30T02:31:43.896Z,100.00
2023-03-30T02:34:18.291Z,100.00
2023-03-30T02:37:03.549Z,100.00
2023-03-30T02:39:37.239Z,100.00
2023-03-30T02:42:19.921Z,100.00
2023-03-30T02:45:15.316Z,100.00
2023-03-30T02:48:01.524Z,100.00
2023-03-30T02:50:36.122Z,100.00
2023-03-30T02:53:28.614Z,100.00
2023-03-30T02:56:29.443Z,100.00
2023-03-30T02:59:00.816Z,100.00
2023-03-30T03:01:31.426Z,100.00
2023-03-30T03:04:00.123Z,100.00
2023-03-30T03:06:27.401Z,100.00
2023-03-30T03:08:56.398Z,100.00
2023-03-30T03:11:23.743Z,100.00
2023-03-30T03:13:51.444Z,100.00
2023-03-30T03:16:19.171Z,100.00
2023-03-30T03:18:46.483Z,100.00
2023-03-30T03:21:14.020Z,100.00
2023-03-30T03:23:41.500Z,100.00
2023-03-30T03:26:09.093Z,100.00
2023-03-30T03:28:36.896Z,100.00
2023-03-30T03:31:06.470Z,100.00
2023-03-30T03:33:35.409Z,100.00
2023-03-30T03:36:02.695Z,100.00
2023-03-30T03:38:30.939Z,100.00
2023-03-30T03:40:58.658Z,100.00
2023-03-30T03:43:26.136Z,100.00
2023-03-30T03:45:53.981Z,100.00
2023-03-30T03:48:23.045Z,100.00
2023-03-30T03:50:54.578Z,100.00
2023-03-30T03:53:22.915Z,100.00
2023-03-30T03:55:50.425Z,100.00
2023-03-30T03:58:22.598Z,100.00
2023-03-30T04:00:50.160Z,100.00
2023-03-30T04:03:19.130Z,100.00
2023-03-30T04:05:49.696Z,100.00
2023-03-30T04:08:20.349Z,100.00
2023-03-30T04:10:47.577Z,100.00
2023-03-30T04:13:19.471Z,100.00
2023-03-30T04:15:47.161Z,100.00
2023-03-30T04:18:15.608Z,100.00
2023-03-30T04:20:42.992Z,100.00
2023-03-30T04:23:16.440Z,100.00
2023-03-30T04:25:45.742Z,100.00
2023-03-30T04:28:12.975Z,100.00
2023-03-30T04:30:41.065Z,100.00
2023-03-30T04:33:09.804Z,100.00
2023-03-30T04:35:37.220Z,100.00
2023-03-30T04:38:04.513Z,100.00
2023-03-30T04:40:33.093Z,100.00
2023-03-30T04:43:03.939Z,100.00
2023-03-30T04:45:31.838Z,100.00
2023-03-30T04:48:00.386Z,100.00
2023-03-30T04:50:27.822Z,100.00
2023-03-30T04:52:55.247Z,100.00
2023-03-30T04:55:22.502Z,100.00
2023-03-30T04:57:50.658Z,100.00
2023-03-30T05:00:18.684Z,100.00
2023-03-30T05:02:46.779Z,100.00
2023-03-30T05:05:14.103Z,100.00
2023-03-30T05:07:41.423Z,100.00
2023-03-30T05:10:11.988Z,100.00
2023-03-30T05:12:39.898Z,100.00
2023-03-30T05:15:07.721Z,100.00
2023-03-30T05:17:38.571Z,100.00
2023-03-30T05:20:10.063Z,100.00
2023-03-30T05:22:37.695Z,100.00
2023-03-30T05:25:07.491Z,100.00
2023-03-30T05:27:34.803Z,100.00
2023-03-30T05:30:02.069Z,100.00
2023-03-30T05:32:30.386Z,100.00
2023-03-30T05:34:57.712Z,100.00
2023-03-30T05:37:24.944Z,100.00
2023-03-30T05:39:52.208Z,100.00
2023-03-30T05:42:20.521Z,100.00
2023-03-30T05:44:47.799Z,100.00
2023-03-30T05:47:16.524Z,100.00
2023-03-30T05:49:43.963Z,100.00
2023-03-30T05:52:11.681Z,100.00
2023-03-30T05:54:39.322Z,100.00
2023-03-30T05:57:06.566Z,100.00
2023-03-30T05:59:34.074Z,100.00
2023-03-30T06:02:01.702Z,100.00
2023-03-30T06:04:29.519Z,100.00
2023-03-30T06:06:56.798Z,100.00
2023-03-30T06:09:25.518Z,100.00
2023-03-30T06:11:52.951Z,100.00
2023-03-30T06:14:20.219Z,100.00
2023-03-30T06:16:48.233Z,100.00
2023-03-30T06:19:16.166Z,100.00
2023-03-30T06:21:43.463Z,100.00
2023-03-30T06:24:10.982Z,100.00
2023-03-30T06:26:38.310Z,100.00
2023-03-30T06:29:08.425Z,100.00
2023-03-30T06:31:35.863Z,100.00
2023-03-30T06:34:03.136Z,100.00
2023-03-30T06:36:44.458Z,100.00
2023-03-30T06:39:13.827Z,100.00
2023-03-30T06:41:42.888Z,100.00
2023-03-30T06:44:10.439Z,100.00
2023-03-30T06:46:38.237Z,100.00
2023-03-30T06:49:05.497Z,100.00
2023-03-30T06:51:35.390Z,100.00
2023-03-30T06:54:03.004Z,100.00
2023-03-30T06:56:30.400Z,100.00
2023-03-30T06:58:57.693Z,100.00
2023-03-30T07:01:25.054Z,100.00
2023-03-30T07:03:53.657Z,100.00
2023-03-30T07:06:21.370Z,100.00
2023-03-30T07:08:49.097Z,100.00
2023-03-30T07:11:16.797Z,100.00
2023-03-30T07:13:44.532Z,100.00
2023-03-30T07:16:11.952Z,100.00
2023-03-30T07:18:39.211Z,100.00
2023-03-30T07:21:06.791Z,100.00
2023-03-30T07:23:35.925Z,100.00
2023-03-30T07:26:07.702Z,100.00
2023-03-30T07:28:38.238Z,100.00
2023-03-30T07:31:07.022Z,100.00
2023-03-30T07:33:34.977Z,100.00
2023-03-30T07:36:03.245Z,100.00
2023-03-30T07:38:31.084Z,100.00
2023-03-30T07:40:59.159Z,98.51
2023-03-30T07:43:27.363Z,98.91
2023-03-30T07:45:56.749Z,100.00
2023-03-30T07:48:24.199Z,99.93
2023-03-30T07:50:59.660Z,99.96
2023-03-30T07:53:26.944Z,99.67
2023-03-30T07:55:54.657Z,99.74
2023-03-30T07:58:22.503Z,99.88
2023-03-30T08:00:49.983Z,99.56
2023-03-30T08:03:18.358Z,98.54
2023-03-30T08:05:55.774Z,99.34
2023-03-30T08:08:24.149Z,98.46
2023-03-30T08:10:51.581Z,98.96
2023-03-30T08:13:22.099Z,99.51
2023-03-30T08:15:50.914Z,100.00
2023-03-30T08:18:18.251Z,100.00
2023-03-30T08:20:45.582Z,100.00
2023-03-30T08:23:13.095Z,99.95
2023-03-30T08:25:40.369Z,100.00
2023-03-30T08:28:07.953Z,98.56
2023-03-30T08:30:35.660Z,98.74
2023-03-30T08:33:05.000Z,98.10
2023-03-30T08:35:34.095Z,98.26
2023-03-30T08:38:01.370Z,97.75
2023-03-30T08:40:28.588Z,99.00
2023-03-30T08:42:59.061Z,99.31
2023-03-30T08:45:35.922Z,98.47
2023-03-30T08:48:03.664Z,98.23
2023-03-30T08:50:35.714Z,98.98
2023-03-30T08:53:06.428Z,99.49
2023-03-30T08:55:37.157Z,97.08
2023-03-30T08:58:25.767Z,97.61
2023-03-30T09:01:16.916Z,98.35
2023-03-30T09:03:50.638Z,97.61
2023-03-30T09:06:46.319Z,97.50
2023-03-30T09:09:16.953Z,97.10
2023-03-30T09:11:48.531Z,95.57
2023-03-30T09:14:25.781Z,95.19
2023-03-30T09:16:57.510Z,95.73
2023-03-30T09:19:31.367Z,93.88
2023-03-30T09:21:58.758Z,93.38
2023-03-30T09:24:26.496Z,92.18
2023-03-30T09:26:59.235Z,91.13
2023-03-30T09:29:26.717Z,92.84
2023-03-30T09:32:06.536Z,90.61
2023-03-30T09:35:12.827Z,90.16
2023-03-30T09:37:40.049Z,92.49
2023-03-30T09:40:29.048Z,92.86
2023-03-30T09:43:14.485Z,92.94
2023-03-30T09:45:41.838Z,91.39
2023-03-30T09:48:09.399Z,91.10
2023-03-30T09:50:39.417Z,90.45
2023-03-30T09:53:17.143Z,92.38
2023-03-30T09:55:55.516Z,92.89
2023-03-30T09:58:33.283Z,93.12
2023-03-30T10:01:05.069Z,91.79
2023-03-30T10:03:34.130Z,93.17
2023-03-30T10:06:03.990Z,93.39
2023-03-30T10:08:31.620Z,94.35
2023-03-30T10:10:59.156Z,94.55
2023-03-30T10:13:32.591Z,94.72
2023-03-30T10:16:18.055Z,94.10
2023-03-30T10:18:47.974Z,96.26
2023-03-30T10:21:22.778Z,95.35
2023-03-30T10:24:03.145Z,96.09
2023-03-30T10:26:31.119Z,94.45
2023-03-30T10:29:07.440Z,94.43
2023-03-30T10:31:39.985Z,93.84
2023-03-30T10:34:19.198Z,94.73
2023-03-30T10:36:50.068Z,94.36
2023-03-30T10:39:47.033Z,94.87
2023-03-30T10:42:19.968Z,94.88
2023-03-30T10:45:00.483Z,95.84
2023-03-30T10:47:37.664Z,96.84
2023-03-30T10:50:27.913Z,95.97
2023-03-30T10:53:10.462Z,95.33
2023-03-30T10:55:54.395Z,96.21
2023-03-30T10:58:24.563Z,97.07
2023-03-30T11:01:03.782Z,96.39
2023-03-30T11:03:32.845Z,96.30
2023-03-30T11:06:10.988Z,96.00
2023-03-30T11:08:40.179Z,94.94
2023-03-30T11:11:09.353Z,95.60
2023-03-30T11:13:41.806Z,95.87
2023-03-30T11:16:14.241Z,96.29
2023-03-30T11:18:58.378Z,95.55
2023-03-30T11:21:36.324Z,96.13
2023-03-30T11:24:15.179Z,96.33
2023-03-30T11:26:49.763Z,96.41
2023-03-30T11:29:42.277Z,97.31
2023-03-30T11:32:27.860Z,96.71
2023-03-30T11:35:20.713Z,97.00
2023-03-30T11:38:20.445Z,96.21
2023-03-30T11:40:59.073Z,96.39
2023-03-30T11:43:28.979Z,97.48
2023-03-30T11:46:20.386Z,98.24
2023-03-30T11:49:09.385Z,97.16
2023-03-30T11:51:49.760Z,97.13
2023-03-30T11:54:23.117Z,97.31
2023-03-30T11:57:13.352Z,97.04
2023-03-30T12:00:08.263Z,97.06
2023-03-30T12:02:58.988Z,97.81
2023-03-30T12:05:43.233Z,98.23
2023-03-30T12:08:38.497Z,97.29
2023-03-30T12:11:12.725Z,97.20
2023-03-30T12:13:51.198Z,95.84
2023-03-30T12:16:44.744Z,96.14
2023-03-30T12:19:15.836Z,95.95
2023-03-30T12:21:49.115Z,96.23
2023-03-30T12:24:22.322Z,94.14
2023-03-30T12:27:04.568Z,95.17
2023-03-30T12:30:02.396Z,95.23
2023-03-30T12:32:33.262Z,94.95
2023-03-30T12:35:00.742Z,95.79
2023-03-30T12:37:28.896Z,95.48
2023-03-30T12:39:57.804Z,96.21
2023-03-30T12:42:39.620Z,95.84
2023-03-30T12:45:21.311Z,96.04
2023-03-30T12:47:58.771Z,94.28
2023-03-30T12:50:55.082Z,95.48
2023-03-30T12:53:36.328Z,95.97
2023-03-30T12:56:04.942Z,95.92
2023-03-30T12:59:06.780Z,95.63
2023-03-30T13:01:57.173Z,94.23
2023-03-30T13:04:25.930Z,94.64
2023-03-30T13:06:56.488Z,95.08
2023-03-30T13:09:27.934Z,94.83
2023-03-30T13:11:55.126Z,94.68
2023-03-30T13:14:28.019Z,94.61
2023-03-30T13:16:55.513Z,93.82
2023-03-30T13:19:37.216Z,94.24
2023-03-30T13:22:11.938Z,94.33
2023-03-30T13:24:42.206Z,93.46
2023-03-30T13:27:18.767Z,95.04
2023-03-30T13:30:15.743Z,96.19
2023-03-30T13:33:04.715Z,96.11
2023-03-30T13:35:33.075Z,95.45
2023-03-30T13:38:30.735Z,95.03
2023-03-30T13:41:05.337Z,94.64
2023-03-30T13:43:51.306Z,93.75
2023-03-30T13:46:30.529Z,95.08
2023-03-30T13:49:14.909Z,95.17
2023-03-30T13:51:44.864Z,95.55
2023-03-30T13:54:21.521Z,95.55
2023-03-30T13:56:56.518Z,93.80
2023-03-30T13:59:26.256Z,94.24
2023-03-30T14:01:54.440Z,94.02
2023-03-30T14:04:22.140Z,94.95
2023-03-30T14:06:50.351Z,95.56
2023-03-30T14:09:23.522Z,95.93
2023-03-30T14:12:02.704Z,97.05
2023-03-30T14:14:34.709Z,96.86
2023-03-30T14:17:02.156Z,97.61
2023-03-30T14:19:33.558Z,97.58
2023-03-30T14:22:04.804Z,97.77
2023-03-30T14:24:33.115Z,98.00
2023-03-30T14:27:14.936Z,97.24
2023-03-30T14:29:49.753Z,96.64
2023-03-30T14:32:23.184Z,97.09
2023-03-30T14:34:51.311Z,97.27
2023-03-30T14:37:21.038Z,97.18
2023-03-30T14:39:53.741Z,96.71
2023-03-30T14:42:26.051Z,97.22
2023-03-30T14:44:59.433Z,97.29
2023-03-30T14:47:27.682Z,97.95
2023-03-30T14:49:59.063Z,97.72
2023-03-30T14:52:33.369Z,97.70
2023-03-30T14:55:06.520Z,98.08
2023-03-30T14:57:38.498Z,96.71
2023-03-30T15:00:21.353Z,96.38
2023-03-30T15:02:51.954Z,97.64
2023-03-30T15:05:19.928Z,97.83
2023-03-30T15:07:49.088Z,96.51
2023-03-30T15:10:22.281Z,96.79
2023-03-30T15:12:51.658Z,96.79
2023-03-30T15:15:19.318Z,97.71
2023-03-30T15:17:52.543Z,98.02
2023-03-30T15:20:19.826Z,98.71
2023-03-30T15:22:48.923Z,97.97
2023-03-30T15:25:28.360Z,97.72
2023-03-30T15:28:01.514Z,97.63
2023-03-30T15:30:37.654Z,97.20
2023-03-30T15:33:07.533Z,98.21
2023-03-30T15:35:36.450Z,98.45
2023-03-30T15:38:10.845Z,97.39
2023-03-30T15:40:42.595Z,97.06
2023-03-30T15:43:13.770Z,98.08
2023-03-30T15:45:47.473Z,98.06
2023-03-30T15:48:17.436Z,98.23
2023-03-30T15:50:47.057Z,97.61
2023-03-30T15:53:19.420Z,97.35
2023-03-30T15:55:50.705Z,98.23
2023-03-30T15:58:20.700Z,98.16
2023-03-30T16:00:48.686Z,98.33
2023-03-30T16:03:21.210Z,98.04
2023-03-30T16:05:48.428Z,98.09
2023-03-30T16:08:15.921Z,97.15
2023-03-30T16:10:45.215Z,96.95
2023-03-30T16:13:12.537Z,97.42
2023-03-30T16:15:39.747Z,96.88
2023-03-30T16:18:11.887Z,95.97
2023-03-30T16:20:39.204Z,96.29
2023-03-30T16:23:08.413Z,95.84
2023-03-30T16:25:44.840Z,95.47
2023-03-30T16:28:15.459Z,95.31
2023-03-30T16:30:43.452Z,97.22
2023-03-30T16:33:11.781Z,96.10
2023-03-30T16:35:39.088Z,96.02
2023-03-30T16:38:06.909Z,96.43
2023-03-30T16:40:43.004Z,95.86
2023-03-30T16:43:10.836Z,95.32
2023-03-30T16:45:38.501Z,95.59
2023-03-30T16:48:12.336Z,94.59
2023-03-30T16:50:51.702Z,94.77
2023-03-30T16:53:18.925Z,94.30
2023-03-30T16:55:46.246Z,94.34
2023-03-30T16:58:15.524Z,94.47
2023-03-30T17:00:49.311Z,94.57
2023-03-30T17:03:17.986Z,94.41
2023-03-30T17:05:50.081Z,94.16
2023-03-30T17:08:23.603Z,94.55
2023-03-30T17:10:51.996Z,94.14
2023-03-30T17:13:29.654Z,94.01
2023-03-30T17:16:17.764Z,94.59
2023-03-30T17:18:45.137Z,94.13
2023-03-30T17:21:16.936Z,93.97
2023-03-30T17:23:45.164Z,92.98
2023-03-30T17:26:12.900Z,92.80
2023-03-30T17:28:42.172Z,92.85
2023-03-30T17:31:18.057Z,93.27
2023-03-30T17:33:46.236Z,92.84
2023-03-30T17:36:16.898Z,92.86
2023-03-30T17:38:47.324Z,92.96
2023-03-30T17:41:16.714Z,94.12
2023-03-30T17:43:45.338Z,94.38
2023-03-30T17:46:15.144Z,95.00
2023-03-30T17:48:43.069Z,94.13
2023-03-30T17:51:11.967Z,93.98
2023-03-30T17:53:39.297Z,94.64
2023-03-30T17:56:13.064Z,93.21
2023-03-30T17:58:40.467Z,93.38
2023-03-30T18:01:08.970Z,93.17
2023-03-30T18:03:39.401Z,93.37
2023-03-30T18:06:07.440Z,93.28
2023-03-30T18:08:36.396Z,93.97
2023-03-30T18:11:07.201Z,93.28
2023-03-30T18:13:36.154Z,93.84
2023-03-30T18:16:03.993Z,93.35
2023-03-30T18:18:33.157Z,94.17
2023-03-30T18:21:05.179Z,94.39
2023-03-30T18:23:38.042Z,93.19
2023-03-30T18:26:11.196Z,93.10
2023-03-30T18:28:44.546Z,93.39
2023-03-30T18:31:13.300Z,94.01
2023-03-30T18:33:40.757Z,93.36
2023-03-30T18:36:13.594Z,93.01
2023-03-30T18:38:41.351Z,93.28
2023-03-30T18:41:11.566Z,94.08
2023-03-30T18:43:39.471Z,93.81
2023-03-30T18:46:07.348Z,93.12
2023-03-30T18:48:35.808Z,93.64
2023-03-30T18:51:03.804Z,94.34
2023-03-30T18:53:36.745Z,95.40
2023-03-30T18:56:05.370Z,95.68
2023-03-30T18:58:41.794Z,96.14
2023-03-30T19:01:15.884Z,96.94
2023-03-30T19:03:44.980Z,97.34
2023-03-30T19:06:13.734Z,97.62
2023-03-30T19:08:41.151Z,99.03
2023-03-30T19:11:08.502Z,99.05
2023-03-30T19:13:36.741Z,98.17
2023-03-30T19:16:06.128Z,98.19
2023-03-30T19:18:33.880Z,98.76
2023-03-30T19:21:01.492Z,99.08
2023-03-30T19:23:30.512Z,99.25
2023-03-30T19:25:58.210Z,99.49
2023-03-30T19:28:25.720Z,99.39
2023-03-30T19:30:53.363Z,99.32
2023-03-30T19:33:21.170Z,99.65
2023-03-30T19:35:48.577Z,99.96
2023-03-30T19:38:16.405Z,99.77
2023-03-30T19:40:43.714Z,99.57
2023-03-30T19:43:11.272Z,99.13
2023-03-30T19:45:38.630Z,99.87
2023-03-30T19:48:06.264Z,100.00
2023-03-30T19:50:33.837Z,100.00
2023-03-30T19:53:01.596Z,99.52
2023-03-30T19:55:29.583Z,99.33
2023-03-30T19:57:56.846Z,98.50
2023-03-30T20:00:24.525Z,98.53
2023-03-30T20:03:11.787Z,98.72
2023-03-30T20:05:39.360Z,98.26
2023-03-30T20:08:21.035Z,98.26
2023-03-30T20:10:52.467Z,98.96
2023-03-30T20:13:22.103Z,98.45
2023-03-30T20:15:55.907Z,97.19
2023-03-30T20:18:23.868Z,97.64
2023-03-30T20:20:51.138Z,97.35
2023-03-30T20:23:18.442Z,97.60
2023-03-30T20:25:50.328Z,96.50
2023-03-30T20:28:21.578Z,96.52
2023-03-30T20:30:49.237Z,95.48
2023-03-30T20:33:16.720Z,95.84
2023-03-30T20:35:44.504Z,94.85
2023-03-30T20:38:11.764Z,93.74
2023-03-30T20:40:39.880Z,94.12
2023-03-30T20:43:10.052Z,92.45
2023-03-30T20:45:46.274Z,91.77
2023-03-30T20:48:27.126Z,90.64
2023-03-30T20:50:54.989Z,90.24
2023-03-30T20:53:23.002Z,89.13
2023-03-30T20:55:50.536Z,90.17
2023-03-30T20:58:18.105Z,90.18
2023-03-30T21:00:47.449Z,89.89
2023-03-30T21:03:15.382Z,88.83
2023-03-30T21:05:42.665Z,88.80
2023-03-30T21:08:09.947Z,88.72
2023-03-30T21:10:41.215Z,88.36
2023-03-30T21:13:09.187Z,89.41
2023-03-30T21:15:36.680Z,88.75
2023-03-30T21:18:04.136Z,89.20
2023-03-30T21:20:31.472Z,88.28
2023-03-30T21:22:58.769Z,87.81
2023-03-30T21:25:26.050Z,87.41
2023-03-30T21:27:53.342Z,88.45
2023-03-30T21:30:20.824Z,87.69
2023-03-30T21:32:59.860Z,88.40
2023-03-30T21:35:27.596Z,87.14
2023-03-30T21:37:54.998Z,87.07
2023-03-30T21:40:22.265Z,86.92
2023-03-30T21:42:49.542Z,86.83
2023-03-30T21:45:17.895Z,87.81
2023-03-30T21:47:45.346Z,86.63
2023-03-30T21:50:12.660Z,87.01
2023-03-30T21:52:40.052Z,86.74
2023-03-30T21:55:07.681Z,86.99
2023-03-30T21:57:35.230Z,86.90
2023-03-30T22:00:05.434Z,86.88
2023-03-30T22:02:52.612Z,84.36
2023-03-30T22:05:20.634Z,85.30
2023-03-30T22:07:47.884Z,86.13
2023-03-30T22:10:15.203Z,85.70
2023-03-30T22:12:46.864Z,85.78
2023-03-30T22:15:14.435Z,85.86
2023-03-30T22:17:42.761Z,86.79
2023-03-30T22:20:11.780Z,86.35
2023-03-30T22:22:39.558Z,86.74
2023-03-30T22:25:07.007Z,86.71
2023-03-30T22:27:36.010Z,86.67
2023-03-30T22:30:03.723Z,85.40
2023-03-30T22:32:34.638Z,86.26
2023-03-30T22:35:02.089Z,85.93
2023-03-30T22:37:29.952Z,85.60
2023-03-30T22:39:57.819Z,85.87
2023-03-30T22:42:25.110Z,85.63
2023-03-30T22:44:52.354Z,84.92
2023-03-30T22:47:19.705Z,85.80
2023-03-30T22:49:47.360Z,85.60
2023-03-30T22:52:14.691Z,85.86
2023-03-30T22:54:41.978Z,85.93
2023-03-30T22:57:09.226Z,85.94
2023-03-30T22:59:36.689Z,84.85
2023-03-30T23:02:08.175Z,86.42
2023-03-30T23:04:36.302Z,86.41
2023-03-30T23:07:04.205Z,86.10
2023-03-30T23:09:32.124Z,86.94
2023-03-30T23:12:00.312Z,86.02
2023-03-30T23:14:27.825Z,85.34
2023-03-30T23:16:57.742Z,86.47
2023-03-30T23:19:26.009Z,85.09
2023-03-30T23:21:54.399Z,85.66
2023-03-30T23:24:21.687Z,85.56
2023-03-30T23:26:48.995Z,86.03
2023-03-30T23:29:17.057Z,85.21
2023-03-30T23:31:44.360Z,86.10
2023-03-30T23:34:12.989Z,85.77
2023-03-30T23:36:40.261Z,85.73
2023-03-30T23:39:09.262Z,84.24
2023-03-30T23:41:36.616Z,84.10
2023-03-30T23:44:03.882Z,84.28
2023-03-30T23:46:31.270Z,84.56
2023-03-30T23:48:58.615Z,85.29
2023-03-30T23:51:26.075Z,85.16
2023-03-30T23:54:00.151Z,85.67
2023-03-30T23:56:30.033Z,85.33
2023-03-30T23:58:57.393Z,85.25
